sensor_id;sensor_type;location;lat;lon;timestamp;P1;durP1;ratioP1;P2;durP2;ratioP2
69736;SDS011;64476;55.004;73.342;2023-04-20T05:56:08;8.18;;;3.30;;
69736;SDS011;64476;55.004;73.342;2023-04-20T05:59:10;10.95;;;3.58;;
69736;SDS011;64476;55.004;73.342;2023-04-20T06:02:14;4.03;;;3.00;;
69736;SDS011;64476;55.004;73.342;2023-04-20T06:05:16;11.35;;;3.33;;
69736;SDS011;64476;55.004;73.342;2023-04-20T06:08:18;22.58;;;3.70;;
69736;SDS011;64476;55.004;73.342;2023-04-20T06:11:20;4.38;;;2.97;;
69736;SDS011;64476;55.004;73.342;2023-04-20T06:14:22;8.40;;;3.25;;
69736;SDS011;64476;55.004;73.342;2023-04-20T06:17:23;7.22;;;3.22;;
69736;SDS011;64476;55.004;73.342;2023-04-20T06:20:25;4.95;;;2.63;;
69736;SDS011;64476;55.004;73.342;2023-04-20T06:23:27;7.30;;;3.30;;
69736;SDS011;64476;55.004;73.342;2023-04-20T06:26:29;19.57;;;3.20;;
69736;SDS011;64476;55.004;73.342;2023-04-20T06:29:31;13.20;;;3.33;;
69736;SDS011;64476;55.004;73.342;2023-04-20T06:32:33;9.52;;;3.10;;
69736;SDS011;64476;55.004;73.342;2023-04-20T06:35:40;5.37;;;2.80;;
69736;SDS011;64476;55.004;73.342;2023-04-20T06:38:42;12.05;;;3.05;;
69736;SDS011;64476;55.004;73.342;2023-04-20T06:41:44;28.08;;;3.58;;
69736;SDS011;64476;55.004;73.342;2023-04-20T06:44:54;6.07;;;3.10;;
69736;SDS011;64476;55.004;73.342;2023-04-20T06:47:56;3.35;;;2.83;;
69736;SDS011;64476;55.004;73.342;2023-04-20T06:50:57;5.68;;;2.85;;
69736;SDS011;64476;55.004;73.342;2023-04-20T06:54:04;6.57;;;3.40;;
69736;SDS011;64476;55.004;73.342;2023-04-20T06:58:21;9.25;;;3.75;;
69736;SDS011;64476;55.004;73.342;2023-04-20T07:01:23;39.05;;;3.98;;
69736;SDS011;64476;55.004;73.342;2023-04-20T07:08:33;16.42;;;3.85;;
69736;SDS011;64476;55.004;73.342;2023-04-20T07:11:37;10.90;;;4.15;;
69736;SDS011;64476;55.004;73.342;2023-04-20T07:14:43;6.72;;;4.68;;
69736;SDS011;64476;55.004;73.342;2023-04-20T07:17:45;21.70;;;3.65;;
69736;SDS011;64476;55.004;73.342;2023-04-20T07:20:46;16.90;;;6.03;;
69736;SDS011;64476;55.004;73.342;2023-04-20T07:23:48;11.45;;;5.97;;
69736;SDS011;64476;55.004;73.342;2023-04-20T07:27:00;9.60;;;5.28;;
69736;SDS011;64476;55.004;73.342;2023-04-20T07:30:03;26.80;;;6.70;;
69736;SDS011;64476;55.004;73.342;2023-04-20T07:33:08;16.57;;;5.90;;
69736;SDS011;64476;55.004;73.342;2023-04-20T07:36:19;17.79;;;7.26;;
69736;SDS011;64476;55.004;73.342;2023-04-20T07:39:22;16.50;;;6.32;;
69736;SDS011;64476;55.004;73.342;2023-04-20T07:42:27;20.70;;;6.60;;
69736;SDS011;64476;55.004;73.342;2023-04-20T07:45:31;32.53;;;6.70;;
69736;SDS011;64476;55.004;73.342;2023-04-20T07:48:33;14.82;;;6.50;;
69736;SDS011;64476;55.004;73.342;2023-04-20T07:52:07;8.55;;;6.18;;
69736;SDS011;64476;55.004;73.342;2023-04-20T07:55:20;17.15;;;10.57;;
69736;SDS011;64476;55.004;73.342;2023-04-20T07:58:22;18.30;;;6.15;;
69736;SDS011;64476;55.004;73.342;2023-04-20T08:01:29;19.33;;;6.80;;
69736;SDS011;64476;55.004;73.342;2023-04-20T08:04:38;36.65;;;6.72;;
69736;SDS011;64476;55.004;73.342;2023-04-20T08:07:42;13.57;;;5.85;;
69736;SDS011;64476;55.004;73.342;2023-04-20T08:10:44;10.60;;;5.18;;
69736;SDS011;64476;55.004;73.342;2023-04-20T08:13:46;18.95;;;4.85;;
69736;SDS011;64476;55.004;73.342;2023-04-20T08:16:47;18.25;;;4.90;;
69736;SDS011;64476;55.004;73.342;2023-04-20T08:19:54;10.35;;;5.50;;
69736;SDS011;64476;55.004;73.342;2023-04-20T08:23:01;20.90;;;5.53;;
69736;SDS011;64476;55.004;73.342;2023-04-20T08:26:03;4.88;;;3.35;;
69736;SDS011;64476;55.004;73.342;2023-04-20T08:29:10;10.80;;;4.15;;
69736;SDS011;64476;55.004;73.342;2023-04-20T08:32:11;209.65;;;9.48;;
69736;SDS011;64476;55.004;73.342;2023-04-20T08:35:13;18.33;;;3.55;;
69736;SDS011;64476;55.004;73.342;2023-04-20T08:38:15;5.45;;;2.78;;
69736;SDS011;64476;55.004;73.342;2023-04-20T08:41:24;9.07;;;3.13;;
69736;SDS011;64476;55.004;73.342;2023-04-20T08:44:26;10.93;;;3.22;;
69736;SDS011;64476;55.004;73.342;2023-04-20T08:47:29;7.80;;;3.10;;
69736;SDS011;64476;55.004;73.342;2023-04-20T08:50:33;7.28;;;3.13;;
69736;SDS011;64476;55.004;73.342;2023-04-20T08:53:36;10.57;;;3.30;;
69736;SDS011;64476;55.004;73.342;2023-04-20T08:56:44;43.90;;;3.80;;
69736;SDS011;64476;55.004;73.342;2023-04-20T09:02:52;12.93;;;3.13;;
69736;SDS011;64476;55.004;73.342;2023-04-20T09:05:55;5.90;;;3.10;;
69736;SDS011;64476;55.004;73.342;2023-04-20T09:09:28;6.85;;;3.10;;
69736;SDS011;64476;55.004;73.342;2023-04-20T09:12:39;16.23;;;4.00;;
69736;SDS011;64476;55.004;73.342;2023-04-20T09:18:54;21.92;;;4.25;;
69736;SDS011;64476;55.004;73.342;2023-04-20T09:21:58;50.95;;;3.85;;
69736;SDS011;64476;55.004;73.342;2023-04-20T09:25:12;35.00;;;5.82;;
69736;SDS011;64476;55.004;73.342;2023-04-20T09:28:51;26.83;;;4.15;;
69736;SDS011;64476;55.004;73.342;2023-04-20T09:32:26;15.25;;;3.33;;
69736;SDS011;64476;55.004;73.342;2023-04-20T09:39:15;3.00;;;2.58;;
69736;SDS011;64476;55.004;73.342;2023-04-20T09:42:18;17.57;;;3.00;;
69736;SDS011;64476;55.004;73.342;2023-04-20T09:45:20;15.13;;;3.00;;
69736;SDS011;64476;55.004;73.342;2023-04-20T09:48:23;61.28;;;4.45;;
69736;SDS011;64476;55.004;73.342;2023-04-20T09:51:25;3.30;;;2.50;;
69736;SDS011;64476;55.004;73.342;2023-04-20T09:54:28;51.23;;;3.10;;
69736;SDS011;64476;55.004;73.342;2023-04-20T09:57:30;7.32;;;2.67;;
69736;SDS011;64476;55.004;73.342;2023-04-20T10:00:33;14.48;;;2.72;;
69736;SDS011;64476;55.004;73.342;2023-04-20T10:04:12;26.85;;;4.20;;
69736;SDS011;64476;55.004;73.342;2023-04-20T10:10:47;5.18;;;2.50;;
69736;SDS011;64476;55.004;73.342;2023-04-20T10:13:51;10.50;;;4.53;;
69736;SDS011;64476;55.004;73.342;2023-04-20T10:17:03;13.20;;;3.72;;
69736;SDS011;64476;55.004;73.342;2023-04-20T10:20:29;4.97;;;3.20;;
69736;SDS011;64476;55.004;73.342;2023-04-20T10:24:07;9.20;;;3.05;;
69736;SDS011;64476;55.004;73.342;2023-04-20T10:27:17;17.75;;;2.80;;
69736;SDS011;64476;55.004;73.342;2023-04-20T10:30:20;10.05;;;2.80;;
69736;SDS011;64476;55.004;73.342;2023-04-20T10:33:23;5.80;;;2.97;;
69736;SDS011;64476;55.004;73.342;2023-04-20T10:36:29;22.30;;;3.40;;
69736;SDS011;64476;55.004;73.342;2023-04-20T10:39:45;7.20;;;2.78;;
69736;SDS011;64476;55.004;73.342;2023-04-20T10:42:48;9.75;;;2.70;;
69736;SDS011;64476;55.004;73.342;2023-04-20T10:45:56;13.48;;;3.50;;
69736;SDS011;64476;55.004;73.342;2023-04-20T10:48:59;11.02;;;3.40;;
69736;SDS011;64476;55.004;73.342;2023-04-20T10:52:02;52.57;;;4.17;;
69736;SDS011;64476;55.004;73.342;2023-04-20T10:55:04;14.93;;;3.60;;
69736;SDS011;64476;55.004;73.342;2023-04-20T10:58:07;17.37;;;3.40;;
69736;SDS011;64476;55.004;73.342;2023-04-20T11:01:08;12.30;;;3.17;;
69736;SDS011;64476;55.004;73.342;2023-04-20T11:04:10;6.60;;;2.90;;
69736;SDS011;64476;55.004;73.342;2023-04-20T11:07:13;11.55;;;3.17;;
69736;SDS011;64476;55.004;73.342;2023-04-20T11:10:18;3.65;;;2.65;;
69736;SDS011;64476;55.004;73.342;2023-04-20T11:13:22;6.25;;;2.92;;
69736;SDS011;64476;55.004;73.342;2023-04-20T11:16:25;6.10;;;3.13;;
69736;SDS011;64476;55.004;73.342;2023-04-20T11:19:34;7.25;;;3.80;;
69736;SDS011;64476;55.004;73.342;2023-04-20T11:22:54;51.42;;;4.65;;
69736;SDS011;64476;55.004;73.342;2023-04-20T11:26:00;28.40;;;4.28;;
69736;SDS011;64476;55.004;73.342;2023-04-20T11:29:01;13.45;;;4.63;;
69736;SDS011;64476;55.004;73.342;2023-04-20T11:32:04;4.53;;;3.00;;
69736;SDS011;64476;55.004;73.342;2023-04-20T11:35:39;13.32;;;3.30;;
69736;SDS011;64476;55.004;73.342;2023-04-20T11:39:25;15.70;;;3.22;;
69736;SDS011;64476;55.004;73.342;2023-04-20T11:42:34;7.57;;;3.00;;
69736;SDS011;64476;55.004;73.342;2023-04-20T11:46:19;11.88;;;3.40;;
69736;SDS011;64476;55.004;73.342;2023-04-20T11:49:21;7.30;;;3.35;;
69736;SDS011;64476;55.004;73.342;2023-04-20T11:52:24;5.30;;;3.25;;
69736;SDS011;64476;55.004;73.342;2023-04-20T11:55:26;29.15;;;3.75;;
69736;SDS011;64476;55.004;73.342;2023-04-20T11:58:28;42.60;;;4.30;;
69736;SDS011;64476;55.004;73.342;2023-04-20T12:01:37;16.40;;;3.47;;
69736;SDS011;64476;55.004;73.342;2023-04-20T12:04:39;9.85;;;3.08;;
69736;SDS011;64476;55.004;73.342;2023-04-20T12:07:42;28.08;;;3.63;;
69736;SDS011;64476;55.004;73.342;2023-04-20T12:10:48;12.50;;;4.25;;
69736;SDS011;64476;55.004;73.342;2023-04-20T12:13:50;9.23;;;2.53;;
69736;SDS011;64476;55.004;73.342;2023-04-20T12:16:54;3.47;;;2.93;;
69736;SDS011;64476;55.004;73.342;2023-04-20T12:20:32;5.18;;;3.25;;
69736;SDS011;64476;55.004;73.342;2023-04-20T12:23:33;4.72;;;3.00;;
69736;SDS011;64476;55.004;73.342;2023-04-20T12:26:39;8.82;;;3.65;;
69736;SDS011;64476;55.004;73.342;2023-04-20T12:29:41;5.13;;;3.10;;
69736;SDS011;64476;55.004;73.342;2023-04-20T12:32:43;52.95;;;4.28;;
69736;SDS011;64476;55.004;73.342;2023-04-20T12:35:48;11.57;;;3.45;;
69736;SDS011;64476;55.004;73.342;2023-04-20T12:39:24;6.97;;;3.65;;
69736;SDS011;64476;55.004;73.342;2023-04-20T12:42:26;3.95;;;3.08;;
69736;SDS011;64476;55.004;73.342;2023-04-20T12:45:28;5.72;;;3.20;;
69736;SDS011;64476;55.004;73.342;2023-04-20T12:48:31;17.33;;;3.87;;
69736;SDS011;64476;55.004;73.342;2023-04-20T12:52:09;15.73;;;3.38;;
69736;SDS011;64476;55.004;73.342;2023-04-20T12:55:11;10.10;;;3.58;;
69736;SDS011;64476;55.004;73.342;2023-04-20T12:58:19;32.92;;;3.97;;
69736;SDS011;64476;55.004;73.342;2023-04-20T13:01:21;5.90;;;3.83;;
69736;SDS011;64476;55.004;73.342;2023-04-20T13:04:22;10.82;;;3.42;;
69736;SDS011;64476;55.004;73.342;2023-04-20T13:07:24;13.27;;;2.60;;
69736;SDS011;64476;55.004;73.342;2023-04-20T13:10:28;21.63;;;3.50;;
69736;SDS011;64476;55.004;73.342;2023-04-20T13:13:30;9.13;;;3.40;;
69736;SDS011;64476;55.004;73.342;2023-04-20T13:16:42;8.93;;;3.97;;
69736;SDS011;64476;55.004;73.342;2023-04-20T13:19:47;24.23;;;5.55;;
69736;SDS011;64476;55.004;73.342;2023-04-20T13:22:50;5.97;;;3.50;;
69736;SDS011;64476;55.004;73.342;2023-04-20T13:26:02;15.95;;;3.97;;
69736;SDS011;64476;55.004;73.342;2023-04-20T13:32:37;16.58;;;4.60;;
69736;SDS011;64476;55.004;73.342;2023-04-20T13:35:49;13.82;;;4.68;;
69736;SDS011;64476;55.004;73.342;2023-04-20T13:38:50;20.48;;;5.10;;
69736;SDS011;64476;55.004;73.342;2023-04-20T13:41:53;5.85;;;4.50;;
69736;SDS011;64476;55.004;73.342;2023-04-20T13:44:59;32.20;;;5.25;;
69736;SDS011;64476;55.004;73.342;2023-04-20T13:48:12;14.48;;;4.63;;
69736;SDS011;64476;55.004;73.342;2023-04-20T13:51:19;8.94;;;4.60;;
69736;SDS011;64476;55.004;73.342;2023-04-20T13:54:21;9.05;;;4.80;;
69736;SDS011;64476;55.004;73.342;2023-04-20T13:57:23;14.00;;;4.90;;
69736;SDS011;64476;55.004;73.342;2023-04-20T14:00:32;14.65;;;5.10;;
69736;SDS011;64476;55.004;73.342;2023-04-20T14:03:34;6.55;;;4.78;;
69736;SDS011;64476;55.004;73.342;2023-04-20T14:06:36;26.65;;;6.82;;
69736;SDS011;64476;55.004;73.342;2023-04-20T14:09:43;16.60;;;5.90;;
69736;SDS011;64476;55.004;73.342;2023-04-20T14:12:46;18.02;;;6.10;;
69736;SDS011;64476;55.004;73.342;2023-04-20T14:15:48;29.17;;;6.55;;
69736;SDS011;64476;55.004;73.342;2023-04-20T14:18:51;14.60;;;7.80;;
69736;SDS011;64476;55.004;73.342;2023-04-20T14:22:02;32.77;;;9.13;;
69736;SDS011;64476;55.004;73.342;2023-04-20T14:25:14;13.48;;;8.90;;
69736;SDS011;64476;55.004;73.342;2023-04-20T14:28:18;21.25;;;9.23;;
69736;SDS011;64476;55.004;73.342;2023-04-20T14:31:21;18.34;;;8.72;;
69736;SDS011;64476;55.004;73.342;2023-04-20T14:34:23;22.92;;;8.88;;
69736;SDS011;64476;55.004;73.342;2023-04-20T14:37:24;35.28;;;10.52;;
69736;SDS011;64476;55.004;73.342;2023-04-20T14:40:37;23.95;;;10.07;;
69736;SDS011;64476;55.004;73.342;2023-04-20T14:43:40;29.45;;;10.70;;
69736;SDS011;64476;55.004;73.342;2023-04-20T14:46:41;21.40;;;8.68;;
69736;SDS011;64476;55.004;73.342;2023-04-20T14:49:44;18.23;;;8.10;;
69736;SDS011;64476;55.004;73.342;2023-04-20T14:52:47;22.52;;;7.95;;
69736;SDS011;64476;55.004;73.342;2023-04-20T14:55:58;24.73;;;6.75;;
69736;SDS011;64476;55.004;73.342;2023-04-20T14:59:00;13.88;;;6.72;;
69736;SDS011;64476;55.004;73.342;2023-04-20T15:02:02;27.58;;;6.70;;
69736;SDS011;64476;55.004;73.342;2023-04-20T15:05:05;14.68;;;6.00;;
69736;SDS011;64476;55.004;73.342;2023-04-20T15:08:09;9.87;;;5.40;;
69736;SDS011;64476;55.004;73.342;2023-04-20T15:11:19;12.93;;;6.10;;
69736;SDS011;64476;55.004;73.342;2023-04-20T15:14:25;11.80;;;5.65;;
69736;SDS011;64476;55.004;73.342;2023-04-20T15:17:27;11.60;;;5.97;;
69736;SDS011;64476;55.004;73.342;2023-04-20T15:20:29;20.13;;;6.05;;
69736;SDS011;64476;55.004;73.342;2023-04-20T15:23:35;15.73;;;5.90;;
69736;SDS011;64476;55.004;73.342;2023-04-20T15:26:37;11.50;;;5.40;;
69736;SDS011;64476;55.004;73.342;2023-04-20T15:29:39;10.23;;;5.30;;
69736;SDS011;64476;55.004;73.342;2023-04-20T15:32:55;16.93;;;6.63;;
69736;SDS011;64476;55.004;73.342;2023-04-20T15:35:57;18.70;;;6.10;;
69736;SDS011;64476;55.004;73.342;2023-04-20T15:39:09;14.52;;;6.30;;
69736;SDS011;64476;55.004;73.342;2023-04-20T15:42:11;10.68;;;6.53;;
69736;SDS011;64476;55.004;73.342;2023-04-20T15:45:12;13.50;;;5.60;;
69736;SDS011;64476;55.004;73.342;2023-04-20T15:48:19;62.03;;;21.50;;
69736;SDS011;64476;55.004;73.342;2023-04-20T15:51:26;65.10;;;24.00;;
69736;SDS011;64476;55.004;73.342;2023-04-20T15:54:28;66.53;;;25.13;;
69736;SDS011;64476;55.004;73.342;2023-04-20T15:57:30;79.18;;;27.42;;
69736;SDS011;64476;55.004;73.342;2023-04-20T16:00:32;72.43;;;27.55;;
69736;SDS011;64476;55.004;73.342;2023-04-20T16:03:33;55.45;;;26.75;;
69736;SDS011;64476;55.004;73.342;2023-04-20T16:06:35;55.90;;;27.13;;
69736;SDS011;64476;55.004;73.342;2023-04-20T16:09:42;70.43;;;28.40;;
69736;SDS011;64476;55.004;73.342;2023-04-20T16:12:43;67.85;;;27.55;;
69736;SDS011;64476;55.004;73.342;2023-04-20T16:15:46;54.70;;;27.45;;
69736;SDS011;64476;55.004;73.342;2023-04-20T16:18:47;67.95;;;26.33;;
69736;SDS011;64476;55.004;73.342;2023-04-20T16:21:51;53.78;;;26.20;;
69736;SDS011;64476;55.004;73.342;2023-04-20T16:24:53;60.30;;;26.02;;
69736;SDS011;64476;55.004;73.342;2023-04-20T16:28:05;51.85;;;24.15;;
69736;SDS011;64476;55.004;73.342;2023-04-20T16:31:10;62.00;;;23.38;;
69736;SDS011;64476;55.004;73.342;2023-04-20T16:34:12;59.65;;;22.45;;
69736;SDS011;64476;55.004;73.342;2023-04-20T16:37:24;94.70;;;24.10;;
69736;SDS011;64476;55.004;73.342;2023-04-20T16:40:25;61.83;;;23.65;;
69736;SDS011;64476;55.004;73.342;2023-04-20T16:43:28;60.92;;;22.58;;
69736;SDS011;64476;55.004;73.342;2023-04-20T16:46:30;47.20;;;24.25;;
69736;SDS011;64476;55.004;73.342;2023-04-20T16:49:32;67.93;;;24.80;;
69736;SDS011;64476;55.004;73.342;2023-04-20T16:52:34;65.82;;;23.02;;
69736;SDS011;64476;55.004;73.342;2023-04-20T16:55:36;52.20;;;23.52;;
69736;SDS011;64476;55.004;73.342;2023-04-20T16:58:38;48.05;;;24.60;;
69736;SDS011;64476;55.004;73.342;2023-04-20T17:02:16;72.63;;;27.17;;
69736;SDS011;64476;55.004;73.342;2023-04-20T17:05:18;74.80;;;26.50;;
69736;SDS011;64476;55.004;73.342;2023-04-20T17:08:28;54.38;;;25.35;;
69736;SDS011;64476;55.004;73.342;2023-04-20T17:11:30;69.43;;;23.27;;
69736;SDS011;64476;55.004;73.342;2023-04-20T17:14:41;48.47;;;23.08;;
69736;SDS011;64476;55.004;73.342;2023-04-20T17:17:43;57.58;;;23.92;;
69736;SDS011;64476;55.004;73.342;2023-04-20T17:20:45;54.53;;;24.80;;
69736;SDS011;64476;55.004;73.342;2023-04-20T17:23:47;60.35;;;25.73;;
69736;SDS011;64476;55.004;73.342;2023-04-20T17:26:49;68.07;;;29.98;;
69736;SDS011;64476;55.004;73.342;2023-04-20T17:29:52;73.20;;;32.70;;
69736;SDS011;64476;55.004;73.342;2023-04-20T17:33:39;75.07;;;32.03;;
69736;SDS011;64476;55.004;73.342;2023-04-20T17:36:45;70.32;;;29.15;;
69736;SDS011;64476;55.004;73.342;2023-04-20T17:39:56;69.65;;;27.27;;
69736;SDS011;64476;55.004;73.342;2023-04-20T17:42:58;54.83;;;26.03;;
69736;SDS011;64476;55.004;73.342;2023-04-20T17:46:00;68.93;;;23.95;;
69736;SDS011;64476;55.004;73.342;2023-04-20T17:49:02;47.57;;;20.77;;
69736;SDS011;64476;55.004;73.342;2023-04-20T17:52:04;45.30;;;20.15;;
69736;SDS011;64476;55.004;73.342;2023-04-20T17:55:06;36.10;;;18.15;;
69736;SDS011;64476;55.004;73.342;2023-04-20T17:58:10;30.63;;;15.82;;
69736;SDS011;64476;55.004;73.342;2023-04-20T18:01:19;25.82;;;13.75;;
69736;SDS011;64476;55.004;73.342;2023-04-20T18:04:31;22.00;;;12.10;;
69736;SDS011;64476;55.004;73.342;2023-04-20T18:07:33;24.17;;;12.05;;
69736;SDS011;64476;55.004;73.342;2023-04-20T18:10:34;18.73;;;10.77;;
69736;SDS011;64476;55.004;73.342;2023-04-20T18:13:37;26.98;;;10.02;;
69736;SDS011;64476;55.004;73.342;2023-04-20T18:16:39;24.92;;;10.23;;
69736;SDS011;64476;55.004;73.342;2023-04-20T18:19:40;15.73;;;9.15;;
69736;SDS011;64476;55.004;73.342;2023-04-20T18:22:42;15.50;;;8.57;;
69736;SDS011;64476;55.004;73.342;2023-04-20T18:25:46;23.55;;;8.45;;
69736;SDS011;64476;55.004;73.342;2023-04-20T18:28:47;21.45;;;8.93;;
69736;SDS011;64476;55.004;73.342;2023-04-20T18:31:54;19.45;;;8.23;;
69736;SDS011;64476;55.004;73.342;2023-04-20T18:34:59;15.15;;;7.68;;
69736;SDS011;64476;55.004;73.342;2023-04-20T18:38:00;12.02;;;7.55;;
69736;SDS011;64476;55.004;73.342;2023-04-20T18:41:08;17.75;;;6.75;;
69736;SDS011;64476;55.004;73.342;2023-04-20T18:44:09;11.75;;;6.75;;
69736;SDS011;64476;55.004;73.342;2023-04-20T18:47:15;14.23;;;5.70;;
69736;SDS011;64476;55.004;73.342;2023-04-20T18:50:24;11.70;;;5.50;;
69736;SDS011;64476;55.004;73.342;2023-04-20T18:53:25;8.85;;;5.57;;
69736;SDS011;64476;55.004;73.342;2023-04-20T18:56:27;47.53;;;7.37;;
69736;SDS011;64476;55.004;73.342;2023-04-20T18:59:29;12.50;;;5.07;;
69736;SDS011;64476;55.004;73.342;2023-04-20T19:02:30;10.23;;;5.25;;
69736;SDS011;64476;55.004;73.342;2023-04-20T19:05:32;10.00;;;4.97;;
69736;SDS011;64476;55.004;73.342;2023-04-20T19:08:34;9.10;;;5.47;;
69736;SDS011;64476;55.004;73.342;2023-04-20T19:11:36;7.00;;;4.90;;
69736;SDS011;64476;55.004;73.342;2023-04-20T19:14:47;12.13;;;5.15;;
69736;SDS011;64476;55.004;73.342;2023-04-20T19:18:00;19.08;;;5.80;;
69736;SDS011;64476;55.004;73.342;2023-04-20T19:21:01;9.18;;;5.15;;
69736;SDS011;64476;55.004;73.342;2023-04-20T19:24:03;10.57;;;5.75;;
69736;SDS011;64476;55.004;73.342;2023-04-20T19:27:43;9.57;;;5.03;;
69736;SDS011;64476;55.004;73.342;2023-04-20T19:30:44;17.17;;;6.55;;
69736;SDS011;64476;55.004;73.342;2023-04-20T19:37:21;11.05;;;5.10;;
69736;SDS011;64476;55.004;73.342;2023-04-20T19:40:23;12.93;;;7.05;;
69736;SDS011;64476;55.004;73.342;2023-04-20T19:43:25;13.27;;;5.40;;
69736;SDS011;64476;55.004;73.342;2023-04-20T19:46:31;13.27;;;5.93;;
69736;SDS011;64476;55.004;73.342;2023-04-20T19:49:33;16.15;;;6.00;;
69736;SDS011;64476;55.004;73.342;2023-04-20T19:52:35;8.43;;;5.40;;
69736;SDS011;64476;55.004;73.342;2023-04-20T19:55:37;9.57;;;5.35;;
69736;SDS011;64476;55.004;73.342;2023-04-20T19:58:39;8.68;;;5.22;;
69736;SDS011;64476;55.004;73.342;2023-04-20T20:01:43;8.00;;;5.50;;
69736;SDS011;64476;55.004;73.342;2023-04-20T20:04:44;14.15;;;6.22;;
69736;SDS011;64476;55.004;73.342;2023-04-20T20:07:56;15.60;;;6.13;;
69736;SDS011;64476;55.004;73.342;2023-04-20T20:11:07;14.40;;;6.25;;
69736;SDS011;64476;55.004;73.342;2023-04-20T20:14:09;12.23;;;6.05;;
69736;SDS011;64476;55.004;73.342;2023-04-20T20:17:11;12.80;;;5.80;;
69736;SDS011;64476;55.004;73.342;2023-04-20T20:20:20;7.60;;;5.28;;
69736;SDS011;64476;55.004;73.342;2023-04-20T20:23:32;10.27;;;5.35;;
69736;SDS011;64476;55.004;73.342;2023-04-20T20:27:06;11.43;;;5.40;;
69736;SDS011;64476;55.004;73.342;2023-04-20T20:30:08;12.15;;;5.65;;
69736;SDS011;64476;55.004;73.342;2023-04-20T20:33:22;15.73;;;4.93;;
69736;SDS011;64476;55.004;73.342;2023-04-20T20:36:24;17.75;;;5.15;;
69736;SDS011;64476;55.004;73.342;2023-04-20T20:39:39;10.90;;;5.20;;
69736;SDS011;64476;55.004;73.342;2023-04-20T20:42:45;14.32;;;5.32;;
69736;SDS011;64476;55.004;73.342;2023-04-20T20:45:48;13.90;;;6.18;;
69736;SDS011;64476;55.004;73.342;2023-04-20T20:48:50;6.53;;;4.93;;
69736;SDS011;64476;55.004;73.342;2023-04-20T20:51:54;8.23;;;4.87;;
69736;SDS011;64476;55.004;73.342;2023-04-20T20:54:55;9.00;;;4.72;;
69736;SDS011;64476;55.004;73.342;2023-04-20T20:57:57;19.27;;;6.15;;
69736;SDS011;64476;55.004;73.342;2023-04-20T21:00:59;8.88;;;5.13;;
69736;SDS011;64476;55.004;73.342;2023-04-20T21:04:05;19.08;;;5.38;;
69736;SDS011;64476;55.004;73.342;2023-04-20T21:07:16;12.10;;;5.47;;
69736;SDS011;64476;55.004;73.342;2023-04-20T21:10:18;10.70;;;5.38;;
69736;SDS011;64476;55.004;73.342;2023-04-20T21:13:31;11.02;;;5.35;;
69736;SDS011;64476;55.004;73.342;2023-04-20T21:16:33;7.55;;;4.88;;
69736;SDS011;64476;55.004;73.342;2023-04-20T21:19:34;6.75;;;5.22;;
69736;SDS011;64476;55.004;73.342;2023-04-20T21:22:40;10.27;;;5.78;;
69736;SDS011;64476;55.004;73.342;2023-04-20T21:25:44;11.73;;;6.85;;
69736;SDS011;64476;55.004;73.342;2023-04-20T21:28:46;16.47;;;8.73;;
69736;SDS011;64476;55.004;73.342;2023-04-20T21:31:48;17.25;;;7.65;;
69736;SDS011;64476;55.004;73.342;2023-04-20T21:34:51;13.20;;;6.95;;
69736;SDS011;64476;55.004;73.342;2023-04-20T21:37:59;11.40;;;6.10;;
69736;SDS011;64476;55.004;73.342;2023-04-20T21:41:00;14.02;;;6.90;;
69736;SDS011;64476;55.004;73.342;2023-04-20T21:44:02;16.42;;;7.38;;
69736;SDS011;64476;55.004;73.342;2023-04-20T21:47:05;10.20;;;6.88;;
69736;SDS011;64476;55.004;73.342;2023-04-20T21:50:16;12.13;;;6.35;;
69736;SDS011;64476;55.004;73.342;2023-04-20T21:53:28;12.35;;;5.70;;
69736;SDS011;64476;55.004;73.342;2023-04-20T21:56:30;7.47;;;5.28;;
69736;SDS011;64476;55.004;73.342;2023-04-20T21:59:32;9.75;;;5.18;;
69736;SDS011;64476;55.004;73.342;2023-04-20T22:02:33;8.13;;;5.10;;
69736;SDS011;64476;55.004;73.342;2023-04-20T22:05:35;8.88;;;5.53;;
69736;SDS011;64476;55.004;73.342;2023-04-20T22:08:37;8.25;;;5.22;;
69736;SDS011;64476;55.004;73.342;2023-04-20T22:11:39;8.18;;;5.53;;
69736;SDS011;64476;55.004;73.342;2023-04-20T22:14:41;8.32;;;5.00;;
69736;SDS011;64476;55.004;73.342;2023-04-20T22:17:45;8.13;;;5.10;;
69736;SDS011;64476;55.004;73.342;2023-04-20T22:20:47;7.28;;;5.30;;
69736;SDS011;64476;55.004;73.342;2023-04-20T22:23:49;9.27;;;5.45;;
69736;SDS011;64476;55.004;73.342;2023-04-20T22:27:01;6.30;;;5.50;;
69736;SDS011;64476;55.004;73.342;2023-04-20T22:30:07;11.57;;;6.00;;
69736;SDS011;64476;55.004;73.342;2023-04-20T22:33:20;9.18;;;5.78;;
69736;SDS011;64476;55.004;73.342;2023-04-20T22:36:22;9.52;;;5.75;;
69736;SDS011;64476;55.004;73.342;2023-04-20T22:39:29;6.82;;;6.00;;
69736;SDS011;64476;55.004;73.342;2023-04-20T22:42:30;12.90;;;5.80;;
69736;SDS011;64476;55.004;73.342;2023-04-20T22:45:32;9.27;;;5.97;;
69736;SDS011;64476;55.004;73.342;2023-04-20T22:51:41;16.67;;;6.45;;
69736;SDS011;64476;55.004;73.342;2023-04-20T22:54:52;10.30;;;6.30;;
69736;SDS011;64476;55.004;73.342;2023-04-20T22:57:54;7.57;;;6.43;;
69736;SDS011;64476;55.004;73.342;2023-04-20T23:00:55;9.65;;;5.95;;
69736;SDS011;64476;55.004;73.342;2023-04-20T23:03:57;13.77;;;6.40;;
69736;SDS011;64476;55.004;73.342;2023-04-20T23:06:59;11.67;;;6.20;;
69736;SDS011;64476;55.004;73.342;2023-04-20T23:10:01;9.52;;;6.25;;
69736;SDS011;64476;55.004;73.342;2023-04-20T23:13:05;8.80;;;6.47;;
69736;SDS011;64476;55.004;73.342;2023-04-20T23:16:06;13.80;;;6.13;;
69736;SDS011;64476;55.004;73.342;2023-04-20T23:19:08;10.07;;;6.03;;
69736;SDS011;64476;55.004;73.342;2023-04-20T23:22:20;10.75;;;6.88;;
69736;SDS011;64476;55.004;73.342;2023-04-20T23:25:28;8.82;;;6.57;;
69736;SDS011;64476;55.004;73.342;2023-04-20T23:28:29;10.15;;;5.63;;
69736;SDS011;64476;55.004;73.342;2023-04-20T23:31:31;15.35;;;6.60;;
69736;SDS011;64476;55.004;73.342;2023-04-20T23:34:33;12.60;;;5.40;;
69736;SDS011;64476;55.004;73.342;2023-04-20T23:37:34;7.18;;;5.88;;
69736;SDS011;64476;55.004;73.342;2023-04-20T23:40:41;10.73;;;6.63;;
69736;SDS011;64476;55.004;73.342;2023-04-20T23:43:44;10.13;;;6.35;;
69736;SDS011;64476;55.004;73.342;2023-04-20T23:46:46;13.10;;;5.60;;
69736;SDS011;64476;55.004;73.342;2023-04-20T23:49:49;8.02;;;5.80;;
69736;SDS011;64476;55.004;73.342;2023-04-20T23:52:53;11.80;;;6.00;;
69736;SDS011;64476;55.004;73.342;2023-04-20T23:55:58;8.45;;;5.95;;
